createdAt,value
2018-06-01T00:00:40.323Z,99540.34
2018-06-01T00:03:06.686Z,99536.09
2018-06-01T00:05:33.012Z,99539.55
2018-06-01T00:07:59.398Z,99539.76
2018-06-01T00:10:25.754Z,99546.22
2018-06-01T00:12:52.190Z,99546.89
2018-06-01T00:15:18.622Z,99543.25
2018-06-01T00:17:44.970Z,99545.39
2018-06-01T00:20:11.389Z,99544.66
2018-06-01T00:22:37.718Z,99543.45
2018-06-01T00:25:04.073Z,99545.20
2018-06-01T00:27:30.461Z,99536.92
2018-06-01T00:29:56.812Z,99534.33
2018-06-01T00:32:23.152Z,99532.62
2018-06-01T00:34:49.511Z,99539.55
2018-06-01T00:37:15.820Z,99538.48
2018-06-01T00:39:42.139Z,99549.45
2018-06-01T00:42:08.506Z,99536.25
2018-06-01T00:44:35.712Z,99547.31
2018-06-01T00:47:02.088Z,99547.41
2018-06-01T00:49:28.520Z,99543.91
2018-06-01T00:51:54.921Z,99544.84
2018-06-01T00:54:21.279Z,99544.84
2018-06-01T00:56:47.619Z,99546.70
2018-06-01T00:59:13.993Z,99542.23
2018-06-01T01:01:40.324Z,99548.84
2018-06-01T01:04:06.705Z,99547.56
2018-06-01T01:06:33.053Z,99547.52
2018-06-01T01:08:59.430Z,99545.55
2018-06-01T01:11:25.762Z,99542.44
2018-06-01T01:13:52.116Z,99546.90
2018-06-01T01:16:18.498Z,99543.42
2018-06-01T01:18:44.900Z,99540.61
2018-06-01T01:21:11.212Z,99542.28
2018-06-01T01:23:37.629Z,99544.70
2018-06-01T01:26:03.982Z,99537.92
2018-06-01T01:28:30.373Z,99541.34
2018-06-01T01:30:56.807Z,99536.27
2018-06-01T01:33:23.173Z,99533.30
2018-06-01T01:35:49.534Z,99529.44
2018-06-01T01:38:16.826Z,99524.60
2018-06-01T01:40:43.293Z,99526.66
2018-06-01T01:43:09.564Z,99524.91
2018-06-01T01:45:35.930Z,99518.10
2018-06-01T01:48:02.374Z,99516.39
2018-06-01T01:50:28.715Z,99518.45
2018-06-01T01:52:55.074Z,99518.05
2018-06-01T01:55:21.429Z,99529.73
2018-06-01T01:57:47.745Z,99530.47
2018-06-01T02:00:14.241Z,99529.75
2018-06-01T02:02:40.629Z,99529.32
2018-06-01T02:05:06.984Z,99533.12
2018-06-01T02:07:33.392Z,99531.45
2018-06-01T02:09:59.730Z,99531.98
2018-06-01T02:12:26.100Z,99529.98
2018-06-01T02:14:52.534Z,99532.21
2018-06-01T02:17:18.906Z,99536.63
2018-06-01T02:19:45.271Z,99536.68
2018-06-01T02:22:11.695Z,99543.63
2018-06-01T02:24:38.052Z,99534.21
2018-06-01T02:27:04.413Z,99541.53
2018-06-01T02:29:30.808Z,99543.98
2018-06-01T02:31:57.163Z,99536.89
2018-06-01T02:34:23.506Z,99533.12
2018-06-01T02:36:49.923Z,99544.22
2018-06-01T02:39:16.253Z,99540.05
2018-06-01T02:41:42.687Z,99536.05
2018-06-01T02:44:09.224Z,99535.61
2018-06-01T02:46:35.607Z,99540.09
2018-06-01T02:49:02.024Z,99540.48
2018-06-01T02:51:28.404Z,99537.66
2018-06-01T02:53:54.783Z,99542.16
2018-06-01T02:56:21.141Z,99539.63
2018-06-01T02:58:47.678Z,99548.36
2018-06-01T03:01:14.062Z,99549.88
2018-06-01T03:03:40.398Z,99554.28
2018-06-01T03:06:06.771Z,99565.91
2018-06-01T03:08:33.100Z,99557.24
2018-06-01T03:11:00.065Z,99556.38
2018-06-01T03:13:26.406Z,99563.97
2018-06-01T03:15:53.698Z,99565.70
2018-06-01T03:18:20.049Z,99567.66
2018-06-01T03:20:46.365Z,99563.70
2018-06-01T03:23:12.786Z,99570.41
2018-06-01T03:25:39.129Z,99567.13
2018-06-01T03:28:05.462Z,99572.08
2018-06-01T03:30:31.844Z,99577.69
2018-06-01T03:32:58.234Z,99578.69
2018-06-01T03:35:24.568Z,99579.77
2018-06-01T03:37:50.965Z,99587.17
2018-06-01T03:40:17.399Z,99581.63
2018-06-01T03:42:43.746Z,99583.02
2018-06-01T03:45:10.261Z,99579.95
2018-06-01T03:47:36.632Z,99589.98
2018-06-01T03:50:03.025Z,99592.73
2018-06-01T03:52:29.439Z,99589.09
2018-06-01T03:54:55.778Z,99592.08
2018-06-01T03:57:22.150Z,99587.90
2018-06-01T03:59:48.561Z,99590.41
2018-06-01T04:02:14.892Z,99591.90
2018-06-01T04:04:42.106Z,99593.62
2018-06-01T04:07:08.483Z,99593.56
2018-06-01T04:09:34.827Z,99591.84
2018-06-01T04:12:01.240Z,99591.72
2018-06-01T04:14:27.609Z,99593.70
2018-06-01T04:16:54.215Z,99592.03
2018-06-01T04:19:20.582Z,99596.63
2018-06-01T04:21:46.975Z,99596.30
2018-06-01T04:24:14.293Z,99592.31
2018-06-01T04:26:40.644Z,99597.58
2018-06-01T04:29:07.017Z,99600.21
2018-06-01T04:31:33.631Z,99592.64
2018-06-01T04:33:59.985Z,99594.09
2018-06-01T04:36:26.417Z,99596.59
2018-06-01T04:38:52.929Z,99601.09
2018-06-01T04:41:19.487Z,99598.27
2018-06-01T04:43:45.864Z,99596.65
2018-06-01T04:46:12.216Z,99602.72
2018-06-01T04:48:38.581Z,99610.99
2018-06-01T04:51:04.965Z,99614.09
2018-06-01T04:53:31.296Z,99610.27
2018-06-01T04:55:57.629Z,99608.65
2018-06-01T04:58:24.030Z,99614.41
2018-06-01T05:00:50.408Z,99613.39
2018-06-01T05:03:16.757Z,99621.19
2018-06-01T05:05:43.246Z,99621.61
2018-06-01T05:08:09.645Z,99623.44
2018-06-01T05:10:36.024Z,99629.59
2018-06-01T05:13:02.415Z,99629.23
2018-06-01T05:15:28.821Z,99638.02
2018-06-01T05:17:55.169Z,99635.98
2018-06-01T05:20:21.556Z,99637.09
2018-06-01T05:22:47.937Z,99640.80
2018-06-01T05:25:14.376Z,99641.64
2018-06-01T05:27:40.746Z,99642.72
2018-06-01T05:30:07.214Z,99642.89
2018-06-01T05:32:33.594Z,99642.85
2018-06-01T05:35:00.076Z,99641.12
2018-06-01T05:37:27.053Z,99646.31
2018-06-01T05:39:53.567Z,99645.92
2018-06-01T05:42:20.042Z,99642.50
2018-06-01T05:44:46.410Z,99646.62
2018-06-01T05:47:12.794Z,99648.02
2018-06-01T05:49:39.182Z,99653.02
2018-06-01T05:52:05.539Z,99656.39
2018-06-01T05:54:31.896Z,99662.38
2018-06-01T05:56:58.241Z,99658.30
2018-06-01T05:59:24.632Z,99659.61
2018-06-01T06:01:51.042Z,99663.25
2018-06-01T06:04:17.387Z,99661.66
2018-06-01T06:06:43.718Z,99665.55
2018-06-01T06:09:10.152Z,99659.84
2018-06-01T06:11:36.690Z,99660.30
2018-06-01T06:14:03.019Z,99666.82
2018-06-01T06:16:29.408Z,99665.48
2018-06-01T06:18:55.772Z,99661.53
2018-06-01T06:21:22.218Z,99667.03
2018-06-01T06:23:48.585Z,99659.80
2018-06-01T06:26:15.082Z,99661.10
2018-06-01T06:28:41.661Z,99668.20
2018-06-01T06:31:08.049Z,99665.99
2018-06-01T06:33:34.425Z,99661.61
2018-06-01T06:36:00.789Z,99666.91
2018-06-01T06:38:27.125Z,99663.10
2018-06-01T06:40:53.520Z,99663.21
2018-06-01T06:43:19.915Z,99658.95
2018-06-01T06:45:46.486Z,99667.48
2018-06-01T06:48:12.829Z,99663.07
2018-06-01T06:50:39.216Z,99668.80
2018-06-01T06:53:05.584Z,99661.59
2018-06-01T06:55:31.938Z,99662.64
2018-06-01T06:57:58.414Z,99661.92
2018-06-01T07:00:24.744Z,99669.66
2018-06-01T07:02:51.121Z,99663.30
2018-06-01T07:05:17.480Z,99668.59
2018-06-01T07:07:43.878Z,99664.98
2018-06-01T07:10:10.233Z,99669.19
2018-06-01T07:12:36.616Z,99666.81
2018-06-01T07:15:03.015Z,99668.44
2018-06-01T07:17:29.402Z,99672.64
2018-06-01T07:19:55.778Z,99672.54
2018-06-01T07:22:22.146Z,99678.28
2018-06-01T07:24:49.047Z,99668.68
2018-06-01T07:27:15.398Z,99666.68
2018-06-01T07:29:41.741Z,99670.80
2018-06-01T07:32:08.091Z,99661.20
2018-06-01T07:34:34.457Z,99668.22
2018-06-01T07:37:00.843Z,99667.08
2018-06-01T07:39:27.376Z,99672.22
2018-06-01T07:41:53.908Z,99669.27
2018-06-01T07:44:20.346Z,99663.95
2018-06-01T07:46:46.724Z,99661.55
2018-06-01T07:49:13.341Z,99669.84
2018-06-01T07:51:39.707Z,99670.00
2018-06-01T07:54:06.070Z,99673.10
2018-06-01T07:56:32.407Z,99668.32
2018-06-01T07:58:58.772Z,99666.88
2018-06-01T08:01:25.148Z,99661.24
2018-06-01T08:03:51.665Z,99664.65
2018-06-01T08:06:18.060Z,99665.89
2018-06-01T08:08:44.626Z,99664.28
2018-06-01T08:11:10.983Z,99658.27
2018-06-01T08:13:37.334Z,99664.63
2018-06-01T08:16:03.771Z,99657.77
2018-06-01T08:18:30.280Z,99660.34
2018-06-01T08:20:56.680Z,99660.80
2018-06-01T08:23:23.197Z,99657.13
2018-06-01T08:25:49.541Z,99654.50
2018-06-01T08:28:15.893Z,99660.94
2018-06-01T08:30:42.271Z,99656.81
2018-06-01T08:33:08.660Z,99663.19
2018-06-01T08:35:35.192Z,99669.20
2018-06-01T08:38:01.604Z,99658.59
2018-06-01T08:40:27.977Z,99653.66
2018-06-01T08:42:54.320Z,99655.72
2018-06-01T08:45:20.666Z,99660.41
2018-06-01T08:47:47.039Z,99651.82
2018-06-01T08:50:13.547Z,99661.47
2018-06-01T08:52:39.889Z,99661.71
2018-06-01T08:55:06.267Z,99662.96
2018-06-01T08:57:32.662Z,99665.45
2018-06-01T08:59:59.001Z,99654.84
2018-06-01T09:02:25.405Z,99661.71
2018-06-01T09:04:51.800Z,99661.70
2018-06-01T09:07:18.233Z,99657.78
2018-06-01T09:09:44.624Z,99657.34
2018-06-01T09:12:10.961Z,99654.84
2018-06-01T09:14:37.472Z,99657.91
2018-06-01T09:17:03.943Z,99665.73
2018-06-01T09:19:30.290Z,99660.23
2018-06-01T09:21:56.669Z,99667.42
2018-06-01T09:24:23.106Z,99663.31
2018-06-01T09:26:49.568Z,99663.71
2018-06-01T09:29:15.936Z,99655.06
2018-06-01T09:31:42.962Z,99663.09
2018-06-01T09:34:09.351Z,99661.62
2018-06-01T09:36:35.725Z,99656.22
2018-06-01T09:39:02.180Z,99647.39
2018-06-01T09:41:28.742Z,99651.82
2018-06-01T09:43:55.111Z,99643.55
2018-06-01T09:46:21.464Z,99649.73
2018-06-01T09:48:48.744Z,99645.32
2018-06-01T09:51:15.227Z,99645.52
2018-06-01T09:53:41.573Z,99643.37
2018-06-01T09:56:08.058Z,99646.45
2018-06-01T09:58:34.425Z,99643.52
2018-06-01T10:01:01.029Z,99639.48
2018-06-01T10:03:27.408Z,99637.25
2018-06-01T10:05:53.842Z,99628.56
2018-06-01T10:08:20.411Z,99633.13
2018-06-01T10:10:46.794Z,99631.70
2018-06-01T10:13:13.266Z,99622.03
2018-06-01T10:15:39.770Z,99622.56
2018-06-01T10:18:06.145Z,99618.37
2018-06-01T10:20:34.588Z,99615.66
2018-06-01T10:23:01.032Z,99629.03
2018-06-01T10:25:27.386Z,99618.20
2018-06-01T10:27:53.808Z,99624.08
2018-06-01T10:30:20.183Z,99626.41
2018-06-01T10:32:46.522Z,99625.23
2018-06-01T10:35:13.544Z,99626.50
2018-06-01T10:37:39.934Z,99628.17
2018-06-01T10:40:06.282Z,99628.64
2018-06-01T10:42:32.625Z,99632.23
2018-06-01T10:44:58.988Z,99632.56
2018-06-01T10:47:25.374Z,99632.20
2018-06-01T10:49:51.727Z,99630.42
2018-06-01T10:52:18.076Z,99619.52
2018-06-01T10:54:44.428Z,99624.12
2018-06-01T10:57:10.792Z,99618.75
2018-06-01T10:59:37.761Z,99616.25
2018-06-01T11:02:04.178Z,99612.61
2018-06-01T11:04:30.568Z,99611.87
2018-06-01T11:06:56.943Z,99612.37
2018-06-01T11:09:23.290Z,99609.75
2018-06-01T11:11:49.633Z,99614.66
2018-06-01T11:14:16.022Z,99614.67
2018-06-01T11:16:42.382Z,99604.80
2018-06-01T11:19:08.711Z,99604.69
2018-06-01T11:21:35.383Z,99601.56
2018-06-01T11:24:01.714Z,99598.80
2018-06-01T11:26:28.097Z,99602.67
2018-06-01T11:28:54.454Z,99604.42
2018-06-01T11:31:20.828Z,99596.56
2018-06-01T11:34:12.352Z,99595.06
2018-06-01T11:36:41.387Z,99600.00
2018-06-01T11:39:08.005Z,99606.50
2018-06-01T11:41:34.414Z,99605.55
2018-06-01T11:44:00.764Z,99603.50
2018-06-01T11:46:27.126Z,99597.66
2018-06-01T11:48:53.489Z,99602.63
2018-06-01T11:51:19.945Z,99600.20
2018-06-01T11:53:46.264Z,99601.20
2018-06-01T11:56:12.633Z,99603.75
2018-06-01T11:58:39.030Z,99595.98
2018-06-01T12:01:05.410Z,99593.64
2018-06-01T12:03:31.776Z,99592.98
2018-06-01T12:05:58.178Z,99589.67
2018-06-01T12:08:24.534Z,99584.73
2018-06-01T12:10:51.088Z,99586.75
2018-06-01T12:13:17.439Z,99589.64
2018-06-01T12:15:43.781Z,99580.48
2018-06-01T12:18:10.144Z,99582.27
2018-06-01T12:20:36.531Z,99585.78
2018-06-01T12:23:03.083Z,99580.19
2018-06-01T12:25:29.451Z,99585.33
2018-06-01T12:27:55.859Z,99581.53
2018-06-01T12:30:22.332Z,99580.84
2018-06-01T12:32:48.684Z,99585.09
2018-06-01T12:35:15.018Z,99585.47
2018-06-01T12:37:42.387Z,99586.80
2018-06-01T12:40:08.734Z,99577.22
2018-06-01T12:42:35.083Z,99583.30
2018-06-01T12:45:01.474Z,99578.11
2018-06-01T12:47:27.810Z,99577.38
2018-06-01T12:49:54.159Z,99575.72
2018-06-01T12:52:20.522Z,99570.30
2018-06-01T12:54:46.874Z,99571.54
2018-06-01T12:57:13.229Z,99570.64
2018-06-01T12:59:39.690Z,99562.51
2018-06-01T13:02:06.075Z,99558.86
2018-06-01T13:04:32.467Z,99555.20
2018-06-01T13:06:58.960Z,99560.51
2018-06-01T13:09:25.447Z,99562.36
2018-06-01T13:11:51.851Z,99563.09
2018-06-01T13:14:18.209Z,99552.86
2018-06-01T13:16:44.551Z,99553.94
2018-06-01T13:19:11.060Z,99546.31
2018-06-01T13:21:37.461Z,99548.33
2018-06-01T13:24:04.311Z,99549.33
2018-06-01T13:26:30.640Z,99546.23
2018-06-01T13:28:57.003Z,99535.80
2018-06-01T13:31:23.402Z,99535.70
2018-06-01T13:33:49.931Z,99538.94
2018-06-01T13:36:16.453Z,99536.22
2018-06-01T13:38:42.881Z,99537.09
2018-06-01T13:41:09.265Z,99531.14
2018-06-01T13:43:35.829Z,99534.06
2018-06-01T13:46:02.317Z,99531.05
2018-06-01T13:48:28.898Z,99531.95
2018-06-01T13:50:55.228Z,99531.22
2018-06-01T13:53:21.568Z,99533.08
2018-06-01T13:55:48.109Z,99525.52
2018-06-01T13:58:14.465Z,99529.63
2018-06-01T14:00:40.814Z,99529.34
2018-06-01T14:03:07.166Z,99532.38
2018-06-01T14:05:33.574Z,99525.41
2018-06-01T14:08:00.034Z,99521.31
2018-06-01T14:10:26.416Z,99520.59
2018-06-01T14:12:52.905Z,99511.30
2018-06-01T14:15:19.334Z,99515.32
2018-06-01T14:17:45.918Z,99520.69
2018-06-01T14:20:12.309Z,99529.85
2018-06-01T14:22:38.668Z,99533.19
2018-06-01T14:25:05.129Z,99528.50
2018-06-01T14:27:31.473Z,99529.14
2018-06-01T14:29:57.826Z,99521.20
2018-06-01T14:32:24.433Z,99523.70
2018-06-01T14:34:51.109Z,99518.73
2018-06-01T14:37:17.509Z,99520.56
2018-06-01T14:39:43.854Z,99517.75
2018-06-01T14:42:10.211Z,99514.11
2018-06-01T14:44:36.806Z,99520.77
2018-06-01T14:47:03.219Z,99519.39
2018-06-01T14:49:29.637Z,99516.55
2018-06-01T14:51:55.997Z,99517.99
2018-06-01T14:54:22.395Z,99515.70
2018-06-01T14:56:48.915Z,99513.89
2018-06-01T14:59:15.273Z,99519.42
2018-06-01T15:01:41.656Z,99516.78
2018-06-01T15:04:08.074Z,99520.83
2018-06-01T15:06:34.467Z,99525.33
2018-06-01T15:09:00.871Z,99521.22
2018-06-01T15:11:27.230Z,99524.85
2018-06-01T15:13:53.673Z,99521.14
2018-06-01T15:16:20.028Z,99524.67
2018-06-01T15:18:46.497Z,99520.91
2018-06-01T15:21:12.836Z,99515.58
2018-06-01T15:23:39.185Z,99516.38
2018-06-01T15:26:05.513Z,99516.30
2018-06-01T15:28:31.863Z,99515.16
2018-06-01T15:30:58.513Z,99513.14
2018-06-01T15:33:25.018Z,99515.94
2018-06-01T15:35:51.349Z,99509.64
2018-06-01T15:38:17.689Z,99512.31
2018-06-01T15:40:44.052Z,99510.93
2018-06-01T15:43:10.450Z,99515.20
2018-06-01T15:45:36.833Z,99510.10
2018-06-01T15:48:03.254Z,99503.38
2018-06-01T15:50:29.625Z,99512.55
2018-06-01T15:52:55.945Z,99514.65
2018-06-01T15:55:22.287Z,99504.53
2018-06-01T15:57:48.648Z,99509.24
2018-06-01T16:00:15.013Z,99509.64
2018-06-01T16:02:41.369Z,99520.30
2018-06-01T16:05:07.747Z,99517.95
2018-06-01T16:07:34.110Z,99514.64
2018-06-01T16:10:00.444Z,99515.87
2018-06-01T16:12:26.811Z,99509.50
2018-06-01T16:14:53.201Z,99510.97
2018-06-01T16:17:19.600Z,99515.55
2018-06-01T16:19:46.112Z,99525.35
2018-06-01T16:22:12.451Z,99510.30
2018-06-01T16:24:38.806Z,99515.71
2018-06-01T16:27:05.209Z,99517.94
2018-06-01T16:29:31.578Z,99519.43
2018-06-01T16:31:57.946Z,99513.45
2018-06-01T16:34:25.129Z,99516.70
2018-06-01T16:36:51.486Z,99516.04
2018-06-01T16:39:17.861Z,99522.42
2018-06-01T16:41:44.236Z,99521.45
2018-06-01T16:44:10.583Z,99519.28
2018-06-01T16:46:36.939Z,99521.87
2018-06-01T16:49:03.385Z,99520.11
2018-06-01T16:51:29.766Z,99513.23
2018-06-01T16:53:56.110Z,99514.80
2018-06-01T16:56:22.459Z,99517.81
2018-06-01T16:58:48.782Z,99520.07
2018-06-01T17:01:15.109Z,99518.41
2018-06-01T17:03:41.434Z,99531.66
2018-06-01T17:06:07.850Z,99523.53
2018-06-01T17:08:34.169Z,99522.73
2018-06-01T17:11:00.500Z,99518.59
2018-06-01T17:13:26.831Z,99520.34
2018-06-01T17:15:53.163Z,99522.13
2018-06-01T17:18:19.547Z,99524.38
2018-06-01T17:20:45.887Z,99522.94
2018-06-01T17:23:12.232Z,99526.19
2018-06-01T17:25:38.583Z,99523.23
2018-06-01T17:28:04.966Z,99519.92
2018-06-01T17:30:31.325Z,99525.69
2018-06-01T17:32:57.672Z,99530.89
2018-06-01T17:35:24.009Z,99537.91
2018-06-01T17:37:50.396Z,99546.20
2018-06-01T17:40:16.770Z,99545.42
2018-06-01T17:42:43.135Z,99554.17
2018-06-01T17:45:10.294Z,99554.38
2018-06-01T17:47:36.658Z,99556.03
2018-06-01T17:50:03.118Z,99557.89
2018-06-01T17:52:29.577Z,99564.22
2018-06-01T17:54:55.982Z,99565.88
2018-06-01T17:57:22.409Z,99564.19
2018-06-01T17:59:48.815Z,99573.87
2018-06-01T18:02:15.193Z,99575.31
2018-06-01T18:04:41.597Z,99579.08
2018-06-01T18:07:08.076Z,99575.72
2018-06-01T18:09:34.416Z,99573.53
2018-06-01T18:12:00.794Z,99579.20
2018-06-01T18:14:27.284Z,99584.08
2018-06-01T18:16:53.642Z,99584.86
2018-06-01T18:19:19.987Z,99594.05
2018-06-01T18:21:46.354Z,99594.67
2018-06-01T18:24:12.702Z,99601.12
2018-06-01T18:26:39.113Z,99607.95
2018-06-01T18:29:05.496Z,99609.09
2018-06-01T18:31:31.913Z,99610.78
2018-06-01T18:33:58.257Z,99615.64
2018-06-01T18:36:24.637Z,99610.86
2018-06-01T18:38:51.021Z,99621.25
2018-06-01T18:41:17.407Z,99637.32
2018-06-01T18:43:43.786Z,99649.50
2018-06-01T18:46:10.123Z,99661.19
2018-06-01T18:48:36.466Z,99660.68
2018-06-01T18:51:02.803Z,99656.99
2018-06-01T18:53:29.161Z,99668.38
2018-06-01T18:55:55.502Z,99673.22
2018-06-01T18:58:21.965Z,99670.36
2018-06-01T19:00:48.319Z,99672.27
2018-06-01T19:03:14.833Z,99678.63
2018-06-01T19:05:41.692Z,99679.85
2018-06-01T19:08:08.214Z,99681.25
2018-06-01T19:10:34.560Z,99688.84
2018-06-01T19:13:00.940Z,99687.21
2018-06-01T19:15:27.373Z,99694.80
2018-06-01T19:17:54.546Z,99701.80
2018-06-01T19:20:20.979Z,99704.04
2018-06-01T19:22:47.334Z,99710.64
2018-06-01T19:25:13.680Z,99720.84
2018-06-01T19:27:40.042Z,99721.90
2018-06-01T19:30:06.441Z,99725.84
2018-06-01T19:32:32.768Z,99727.89
2018-06-01T19:34:59.713Z,99736.78
2018-06-01T19:37:26.091Z,99734.21
2018-06-01T19:39:52.446Z,99739.89
2018-06-01T19:42:18.783Z,99740.81
2018-06-01T19:44:45.211Z,99742.44
2018-06-01T19:47:11.574Z,99753.53
2018-06-01T19:49:37.915Z,99761.54
2018-06-01T19:52:04.265Z,99760.19
2018-06-01T19:54:30.638Z,99764.14
2018-06-01T19:56:56.967Z,99765.37
2018-06-01T19:59:23.311Z,99759.65
2018-06-01T20:01:49.785Z,99770.21
2018-06-01T20:04:16.526Z,99767.28
2018-06-01T20:06:43.093Z,99770.21
2018-06-01T20:09:09.923Z,99773.83
2018-06-01T20:11:36.911Z,99779.33
2018-06-01T20:14:03.525Z,99780.30
2018-06-01T20:16:29.887Z,99785.00
2018-06-01T20:18:56.260Z,99783.14
2018-06-01T20:21:22.605Z,99786.00
2018-06-01T20:23:48.947Z,99789.59
2018-06-01T20:26:15.282Z,99803.16
2018-06-01T20:28:41.657Z,99804.68
2018-06-01T20:31:08.127Z,99812.00
2018-06-01T20:33:34.470Z,99819.36
2018-06-01T20:36:00.804Z,99813.52
2018-06-01T20:38:27.160Z,99810.63
2018-06-01T20:40:53.525Z,99831.56
2018-06-01T20:43:19.980Z,99827.64
2018-06-01T20:45:46.356Z,99836.95
2018-06-01T20:48:13.134Z,99835.72
2018-06-01T20:50:39.735Z,99839.97
2018-06-01T20:53:06.260Z,99840.05
2018-06-01T20:55:37.532Z,99834.20
2018-06-01T20:58:04.165Z,99838.57
2018-06-01T21:00:30.577Z,99848.89
2018-06-01T21:02:56.965Z,99855.52
2018-06-01T21:05:23.374Z,99851.72
2018-06-01T21:07:49.766Z,99847.98
2018-06-01T21:10:16.122Z,99851.84
2018-06-01T21:12:42.465Z,99854.83
2018-06-01T21:15:08.813Z,99858.27
2018-06-01T21:17:35.178Z,99860.09
2018-06-01T21:20:01.609Z,99869.44
2018-06-01T21:22:27.937Z,99868.98
2018-06-01T21:24:54.322Z,99867.61
2018-06-01T21:27:20.729Z,99865.54
2018-06-01T21:29:47.164Z,99863.20
2018-06-01T21:32:13.522Z,99867.38
2018-06-01T21:34:39.857Z,99872.09
2018-06-01T21:37:06.206Z,99874.09
2018-06-01T21:39:32.670Z,99875.97
2018-06-01T21:41:59.610Z,99881.55
2018-06-01T21:44:25.941Z,99876.53
2018-06-01T21:46:52.284Z,99877.95
2018-06-01T21:49:18.605Z,99875.80
2018-06-01T21:51:44.926Z,99875.52
2018-06-01T21:54:11.265Z,99880.45
2018-06-01T21:56:37.732Z,99873.03
2018-06-01T21:59:04.136Z,99867.00
2018-06-01T22:01:30.491Z,99868.53
2018-06-01T22:03:56.844Z,99873.78
2018-06-01T22:06:23.234Z,99874.79
2018-06-01T22:08:49.588Z,99873.94
2018-06-01T22:11:15.898Z,99872.28
2018-06-01T22:13:42.230Z,99878.25
2018-06-01T22:16:08.689Z,99878.94
2018-06-01T22:18:35.044Z,99887.23
2018-06-01T22:21:01.455Z,99882.08
2018-06-01T22:23:27.805Z,99881.73
2018-06-01T22:25:54.165Z,99885.77
2018-06-01T22:28:20.526Z,99877.95
2018-06-01T22:30:46.875Z,99883.23
2018-06-01T22:33:13.218Z,99888.13
2018-06-01T22:35:39.555Z,99886.66
2018-06-01T22:38:05.913Z,99882.29
2018-06-01T22:40:32.253Z,99887.78
2018-06-01T22:42:58.592Z,99887.23
2018-06-01T22:45:24.931Z,99884.14
2018-06-01T22:47:51.294Z,99885.14
2018-06-01T22:50:17.627Z,99889.70
2018-06-01T22:52:44.026Z,99881.36
2018-06-01T22:55:10.409Z,99884.54
2018-06-01T22:57:36.822Z,99875.41
2018-06-01T23:00:03.228Z,99878.53
2018-06-01T23:02:29.503Z,99885.05
2018-06-01T23:04:55.909Z,99884.84
2018-06-01T23:07:22.249Z,99879.81
2018-06-01T23:09:48.591Z,99883.11
2018-06-01T23:12:14.948Z,99881.03
2018-06-01T23:14:42.105Z,99884.68
2018-06-01T23:17:08.474Z,99889.38
2018-06-01T23:19:34.828Z,99879.08
2018-06-01T23:22:01.153Z,99876.48
2018-06-01T23:24:27.592Z,99878.73
2018-06-01T23:26:53.954Z,99866.09
2018-06-01T23:29:20.302Z,99864.59
2018-06-01T23:31:46.658Z,99869.19
2018-06-01T23:34:13.046Z,99868.21
2018-06-01T23:36:39.410Z,99867.31
2018-06-01T23:39:05.810Z,99869.50
2018-06-01T23:41:32.218Z,99872.30
2018-06-01T23:43:58.582Z,99871.69
2018-06-01T23:46:24.982Z,99871.52
2018-06-01T23:48:51.415Z,99865.90
2018-06-01T23:51:17.782Z,99863.59
2018-06-01T23:53:44.164Z,99860.23
2018-06-01T23:56:10.507Z,99860.33
2018-06-01T23:58:36.841Z,99868.80
